METAR Data
IDs: Format: Raw Decoded Include TAF

Data at: 0547 UTC 19 Aug 2019

K4M9 190535Z AUTO 00000KT 10SM SCT120 22/22 A2997 RMK AO2 PWINO
K4M9 190515Z AUTO 20005KT 10SM FEW120 22/22 A2997 RMK AO2 PWINO
K4M9 190455Z AUTO 19004KT 10SM CLR 22/22 A2998 RMK AO2 PWINO
K4M9 190435Z AUTO 21004KT 10SM FEW044 23/23 A2999 RMK AO2 PWINO
K4M9 190415Z AUTO 00000KT 10SM FEW044 23/23 A2999 RMK AO2 PWINO
K4M9 190355Z AUTO 15005KT 10SM SCT045 23/23 A2999 RMK AO2 PWINO
K4M9 190335Z AUTO 15005KT 10SM SCT035 OVC045 24/24 A2998 RMK AO2 PWINO
K4M9 190315Z AUTO 17005KT 10SM BKN034 OVC120 24/24 A2998 RMK AO2 PWINO
K4M9 190255Z AUTO 19004KT 10SM OVC120 24/24 A2996 RMK AO2 PWINO
K4M9 190235Z AUTO 16005KT 10SM SCT120 24/25 A2994 RMK AO2 PWINO
K4M9 190215Z AUTO 12004KT 10SM CLR 24/24 A2993 RMK AO2 PWINO
K4M9 190155Z AUTO 00000KT 10SM CLR 24/24 A2993 RMK AO2 LTG DSNT SE PWINO
K4M9 190135Z AUTO 15005KT 10SM VCTS FEW025 FEW048 SCT090 24/24 A2992 RMK AO2 LTG DSNT SE AND S PWINO
K4M9 190115Z AUTO 13006KT 10SM FEW110 24/25 A2991 RMK AO2 LTG DSNT E-S PWINO
K4M9 190055Z AUTO 00000KT 10SM VCTS CLR 25/25 A2992 RMK AO2 LTG DSNT SE AND S PWINO
K4M9 190035Z AUTO 00000KT 10SM VCTS FEW050 25/25 A2992 RMK AO2 LTG DSNT SE AND S PWINO
K4M9 190015Z AUTO 33005KT 10SM VCTS FEW055 SCT095 25/25 A2994 RMK AO2 LTG DSNT ALQDS PWINO
K4M9 182355Z AUTO 34005KT 10SM VCTS FEW028 FEW050 SCT095 25/25 A2993 RMK AO2 LTG DSNT E-SW PWINO
K4M9 182335Z AUTO 29005KT 10SM SCT025 SCT034 SCT080 25/25 A2994 RMK AO2 LTG DSNT N AND S AND W PWINO
K4M9 182315Z AUTO VRB05G13KT 10SM VCTS CLR 25/23 A2994 RMK AO2 LTG DSNT ALQDS PWINO
K4M9 182255Z AUTO 22007KT 10SM VCTS CLR 26/25 A2990 RMK AO2 LTG DSNT ALQDS PWINO
K4M9 182235Z AUTO 19006KT 10SM CLR 27/24 A2989 RMK AO2 LTG DSNT ALQDS PWINO
K4M9 182215Z AUTO 17005KT 10SM VCTS CLR 27/25 A2990 RMK AO2 LTG DSNT ALQDS PWINO
K4M9 182155Z AUTO 21008KT 10SM VCTS CLR 27/27 A2989 RMK AO2 LTG DSNT ALQDS PWINO
K4M9 182135Z AUTO 23005KT 10SM VCTS CLR 25/25 A2990 RMK AO2 LTG DSNT ALQDS PWINO
K4M9 182115Z AUTO 28005KT 10SM VCTS FEW036 26/26 A2988 RMK AO2 LTG DSNT ALQDS PWINO
K4M9 182055Z AUTO 26010G15KT 4SM VCTS BR SCT036 26/26 A2990 RMK AO2 PWINO
K4M9 182035Z AUTO 21007KT 10SM VCTS CLR 30/28 A2987 RMK AO2 LTG DSNT ALQDS PWINO
K4M9 182015Z AUTO 21009KT 10SM VCTS CLR 30/28 A2988 RMK AO2 LTG DSNT ALQDS PWINO
K4M9 181955Z AUTO 20009KT 10SM FEW037 FEW045 FEW060 31/28 A2988 RMK AO2 LTG DSNT W-N PWINO
K4M9 181935Z AUTO 21007KT 10SM SCT037 SCT044 32/28 A2990 RMK AO2 LTG DSNT W-N PWINO
K4M9 181915Z AUTO 20010KT 10SM SCT039 33/28 A2990 RMK AO2 PWINO
K4M9 181855Z AUTO 21011KT 10SM CLR 34/29 A2990 RMK AO2 LTG DSNT N AND S PWINO
K4M9 181835Z AUTO 21012KT 10SM CLR 34/28 A2990 RMK AO2 PWINO
K4M9 181815Z AUTO 19011G16KT 10SM CLR 33/28 A2991 RMK AO2 PWINO
K4M9 181755Z AUTO 19010KT 10SM CLR 33/27 A2991 RMK AO2 PWINO
K4M9 181735Z AUTO 20007KT 10SM CLR 33/28 A2992 RMK AO2 PWINO
K4M9 181715Z AUTO 23009KT 10SM CLR 33/27 A2993 RMK AO2 PWINO
K4M9 181655Z AUTO 23008G13KT 10SM CLR 32/27 A2994 RMK AO2 PWINO
K4M9 181635Z AUTO 22006KT 10SM CLR 32/27 A2994 RMK AO2 PWINO
K4M9 181615Z AUTO 21007KT 10SM CLR 32/27 A2994 RMK AO2 PWINO
K4M9 181555Z AUTO 19008KT 10SM CLR 31/27 A2993 RMK AO2 PWINO
K4M9 181535Z AUTO 20009KT 10SM CLR 31/27 A2994 RMK AO2 PWINO
K4M9 181515Z AUTO 20007KT 10SM CLR 30/26 A2995 RMK AO2 PWINO
K4M9 181455Z AUTO 20006KT 10SM CLR 29/26 A2995 RMK AO2 PWINO
K4M9 181435Z AUTO 20006KT 10SM CLR 29/26 A2995 RMK AO2 PWINO
K4M9 181415Z AUTO 21008KT 10SM CLR 28/26 A2994 RMK AO2 PWINO
K4M9 181355Z AUTO 20008KT 10SM CLR 28/26 A2994 RMK AO2 PWINO
K4M9 181335Z AUTO 20006KT 10SM CLR 27/26 A2994 RMK AO2 PWINO
K4M9 181315Z AUTO 20006KT 10SM CLR 26/25 A2994 RMK AO2 PWINO
K4M9 181255Z AUTO 19005KT 10SM CLR 25/25 A2993 RMK AO2 PWINO
K4M9 181235Z AUTO 18005KT 10SM CLR 25/25 A2993 RMK AO2 PWINO
K4M9 181215Z AUTO 16004KT 10SM CLR 24/24 A2992 RMK AO2 PWINO
K4M9 181155Z AUTO 17004KT 10SM CLR 24/24 A2991 RMK AO2 PWINO
K4M9 181135Z AUTO 18005KT 10SM CLR 24/24 A2992 RMK AO2 PWINO
K4M9 181115Z AUTO 17003KT 10SM CLR 24/24 A2992 RMK AO2 PWINO
K4M9 181055Z AUTO 17006KT 10SM CLR 24/24 A2992 RMK AO2 PWINO
K4M9 181035Z AUTO 18004KT 10SM CLR 24/24 A2992 RMK AO2 PWINO
K4M9 181015Z AUTO 19004KT 10SM CLR 23/23 A2992 RMK AO2 PWINO
K4M9 180955Z AUTO 21006KT 10SM CLR 23/23 A2991 RMK AO2 PWINO
K4M9 180935Z AUTO 22005KT 10SM CLR 23/23 A2990 RMK AO2 PWINO
K4M9 180915Z AUTO 21006KT 10SM CLR 23/24 A2989 RMK AO2 PWINO
K4M9 180855Z AUTO 21006KT 10SM CLR 23/24 A2989 RMK AO2 PWINO
K4M9 180835Z AUTO 23005KT 10SM CLR 23/24 A2989 RMK AO2 PWINO
K4M9 180815Z AUTO 19004KT 10SM CLR 24/24 A2989 RMK AO2 PWINO
K4M9 180755Z AUTO 18005KT 10SM CLR 25/24 A2989 RMK AO2 PWINO
K4M9 180735Z AUTO 17005KT 10SM CLR 25/25 A2989 RMK AO2 PWINO
K4M9 180715Z AUTO 18006KT 10SM CLR 25/25 A2989 RMK AO2 PWINO
K4M9 180655Z AUTO 18006KT 10SM CLR 24/24 A2990 RMK AO2 PWINO
K4M9 180635Z AUTO 18005KT 10SM CLR 25/25 A2990 RMK AO2 PWINO
K4M9 180615Z AUTO 19006KT 10SM CLR 26/24 A2991 RMK AO2 PWINO
K4M9 180555Z AUTO 17005KT 10SM CLR 26/25 A2991 RMK AO2 PWINO
K4M9 180535Z AUTO 15004KT 10SM CLR 26/25 A2992 RMK AO2 PWINO
K4M9 180515Z AUTO 16006KT 10SM CLR 25/25 A2992 RMK AO2 PWINO
K4M9 180455Z AUTO 15005KT 10SM CLR 25/25 A2991 RMK AO2 PWINO
K4M9 180435Z AUTO 15006KT 10SM CLR 25/25 A2992 RMK AO2 PWINO
K4M9 180415Z AUTO 14005KT 10SM CLR 25/25 A2992 RMK AO2 PWINO
K4M9 180355Z AUTO 10SM CLR RMK AO2 PWINO TSNO
K4M9 180335Z AUTO 14005KT 10SM CLR 25/25 A2992 RMK AO2 PWINO
K4M9 180315Z AUTO 15005KT 10SM CLR 26/25 A2991 RMK AO2 PWINO
K4M9 180255Z AUTO 15006KT 10SM CLR 26/25 A2991 RMK AO2 PWINO
K4M9 180235Z AUTO 16005KT 10SM CLR 26/26 A2991 RMK AO2 PWINO
K4M9 180215Z AUTO 16004KT 10SM CLR 27/25 A2990 RMK AO2 PWINO
K4M9 180155Z AUTO 16006KT 10SM CLR 27/26 A2990 RMK AO2 PWINO
K4M9 180135Z AUTO 17007KT 10SM CLR 28/26 A2989 RMK AO2 PWINO
K4M9 180115Z AUTO 17007KT 10SM CLR 29/26 A2988 RMK AO2 PWINO
K4M9 180055Z AUTO 17004KT 10SM CLR 29/27 A2989 RMK AO2 PWINO
K4M9 180035Z AUTO 19007KT 10SM CLR 30/27 A2989 RMK AO2 PWINO
K4M9 180015Z AUTO 20005KT 10SM CLR 30/27 A2989 RMK AO2 PWINO
K4M9 172355Z AUTO 20006KT 10SM CLR 31/27 A2989 RMK AO2 PWINO
K4M9 172335Z AUTO 20006KT 10SM CLR 31/27 A2988 RMK AO2 PWINO
K4M9 172315Z AUTO 20007KT 10SM CLR 32/27 A2988 RMK AO2 PWINO
K4M9 172255Z AUTO 19007KT 10SM CLR 32/27 A2988 RMK AO2 PWINO
K4M9 172235Z AUTO 19008KT 10SM CLR 33/27 A2989 RMK AO2 PWINO
K4M9 172215Z AUTO 19008KT 10SM CLR 33/27 A2989 RMK AO2 PWINO
K4M9 172155Z AUTO 19007KT 10SM CLR 34/27 A2989 RMK AO2 PWINO
K4M9 172135Z AUTO 18008KT 10SM CLR 34/27 A2989 RMK AO2 PWINO
K4M9 172115Z AUTO 18007KT 10SM CLR 34/27 A2990 RMK AO2 PWINO
K4M9 172055Z AUTO 18009KT 10SM CLR 34/27 A2989 RMK AO2 PWINO
K4M9 172035Z AUTO 19006KT 10SM CLR 33/27 A2990 RMK AO2 PWINO
K4M9 172015Z AUTO 22006KT 10SM CLR 34/27 A2991 RMK AO2 PWINO
K4M9 171955Z AUTO 20006KT 10SM CLR 34/27 A2991 RMK AO2 PWINO
K4M9 171935Z AUTO 20006KT 10SM CLR 34/26 A2991 RMK AO2 PWINO
K4M9 171915Z AUTO 19007KT 10SM CLR 34/27 A2992 RMK AO2 PWINO
K4M9 171855Z AUTO VRB05KT 10SM CLR 33/27 A2993 RMK AO2 PWINO
K4M9 171835Z AUTO 19006KT 10SM CLR 33/27 A2994 RMK AO2 PWINO
K4M9 171815Z AUTO 20008KT 10SM CLR 32/27 A2995 RMK AO2 PWINO
K4M9 171755Z AUTO 20007KT 10SM CLR 31/26 A2996 RMK AO2 PWINO